Terminal Aerodrome Forecast
Issued by NWS Northern Indiana

Home | Current Version | Previous Version | Text Only | Print | Product List | Glossary On
Versions: 1 2 3 4 5 6 7 8 9 10 11 12 13 14 15 16 17
980
FTUS43 KIWX 220820 AAB
TAFFWA
TAF AMD
KFWA 220820Z 2208/2306 17007KT P6SM -RA OVC040 WS020/22050KT
      TEMPO 2208/2209 3/4SM -RA BR OVC003
     FM221000 17009KT 5SM -RA BR SCT008 BKN025 WS020/21055KT
     FM221500 17012G20KT 3SM -RA BR BKN015
     FM222300 18011KT 4SM -SHRA BR BKN015=

USA.gov is the U.S. government's official web portal to all federal, state and local government web resources and services.